sensor_id;sensor_type;location;lat;lon;timestamp;P1;durP1;ratioP1;P2;durP2;ratioP2
34836;SDS011;21053;50.848;4.652;2022-10-31T00:00:32;21.55;;;9.98;;
34836;SDS011;21053;50.848;4.652;2022-10-31T00:02:58;22.77;;;10.50;;
34836;SDS011;21053;50.848;4.652;2022-10-31T00:05:25;19.83;;;10.15;;
34836;SDS011;21053;50.848;4.652;2022-10-31T00:07:54;20.60;;;9.95;;
34836;SDS011;21053;50.848;4.652;2022-10-31T00:10:23;22.83;;;9.80;;
34836;SDS011;21053;50.848;4.652;2022-10-31T00:12:50;17.58;;;7.97;;
34836;SDS011;21053;50.848;4.652;2022-10-31T00:15:16;26.20;;;9.07;;
34836;SDS011;21053;50.848;4.652;2022-10-31T00:17:45;21.95;;;9.57;;
34836;SDS011;21053;50.848;4.652;2022-10-31T00:20:11;23.77;;;10.00;;
34836;SDS011;21053;50.848;4.652;2022-10-31T00:22:38;28.05;;;10.95;;
34836;SDS011;21053;50.848;4.652;2022-10-31T00:25:04;30.58;;;11.75;;
34836;SDS011;21053;50.848;4.652;2022-10-31T00:27:31;29.67;;;10.25;;
34836;SDS011;21053;50.848;4.652;2022-10-31T00:29:57;21.67;;;10.48;;
34836;SDS011;21053;50.848;4.652;2022-10-31T00:32:24;33.83;;;10.27;;
34836;SDS011;21053;50.848;4.652;2022-10-31T00:34:50;22.05;;;9.45;;
34836;SDS011;21053;50.848;4.652;2022-10-31T00:37:16;25.55;;;10.88;;
34836;SDS011;21053;50.848;4.652;2022-10-31T00:39:42;32.40;;;10.80;;
34836;SDS011;21053;50.848;4.652;2022-10-31T00:42:10;22.67;;;9.88;;
34836;SDS011;21053;50.848;4.652;2022-10-31T00:44:37;30.25;;;9.25;;
34836;SDS011;21053;50.848;4.652;2022-10-31T00:47:03;22.15;;;9.73;;
34836;SDS011;21053;50.848;4.652;2022-10-31T00:49:30;20.10;;;10.20;;
34836;SDS011;21053;50.848;4.652;2022-10-31T00:51:55;18.10;;;9.60;;
34836;SDS011;21053;50.848;4.652;2022-10-31T00:54:22;25.55;;;12.70;;
34836;SDS011;21053;50.848;4.652;2022-10-31T00:56:49;36.92;;;11.88;;
34836;SDS011;21053;50.848;4.652;2022-10-31T00:59:16;27.63;;;11.05;;
34836;SDS011;21053;50.848;4.652;2022-10-31T01:01:43;27.45;;;10.95;;
34836;SDS011;21053;50.848;4.652;2022-10-31T01:04:10;36.88;;;11.65;;
34836;SDS011;21053;50.848;4.652;2022-10-31T01:09:05;29.13;;;11.18;;
34836;SDS011;21053;50.848;4.652;2022-10-31T01:11:31;22.50;;;10.95;;
34836;SDS011;21053;50.848;4.652;2022-10-31T01:13:57;34.50;;;11.18;;
34836;SDS011;21053;50.848;4.652;2022-10-31T01:16:23;24.20;;;10.00;;
34836;SDS011;21053;50.848;4.652;2022-10-31T01:18:52;26.55;;;10.45;;
34836;SDS011;21053;50.848;4.652;2022-10-31T01:21:23;21.45;;;10.68;;
34836;SDS011;21053;50.848;4.652;2022-10-31T01:23:50;21.27;;;10.75;;
34836;SDS011;21053;50.848;4.652;2022-10-31T01:26:22;23.83;;;11.20;;
34836;SDS011;21053;50.848;4.652;2022-10-31T01:28:59;16.48;;;9.88;;
34836;SDS011;21053;50.848;4.652;2022-10-31T01:31:29;24.95;;;10.27;;
34836;SDS011;21053;50.848;4.652;2022-10-31T01:33:57;19.27;;;9.55;;
34836;SDS011;21053;50.848;4.652;2022-10-31T01:36:24;19.55;;;9.48;;
34836;SDS011;21053;50.848;4.652;2022-10-31T01:38:52;21.13;;;9.82;;
34836;SDS011;21053;50.848;4.652;2022-10-31T01:41:22;23.98;;;9.82;;
34836;SDS011;21053;50.848;4.652;2022-10-31T01:43:56;21.55;;;9.48;;
34836;SDS011;21053;50.848;4.652;2022-10-31T01:46:37;19.30;;;9.35;;
34836;SDS011;21053;50.848;4.652;2022-10-31T01:54:30;18.38;;;10.20;;
34836;SDS011;21053;50.848;4.652;2022-10-31T01:57:07;19.38;;;8.45;;
34836;SDS011;21053;50.848;4.652;2022-10-31T01:59:37;14.27;;;7.53;;
34836;SDS011;21053;50.848;4.652;2022-10-31T02:02:09;15.73;;;7.43;;
34836;SDS011;21053;50.848;4.652;2022-10-31T02:04:38;16.58;;;7.45;;
34836;SDS011;21053;50.848;4.652;2022-10-31T02:07:09;10.45;;;6.78;;
34836;SDS011;21053;50.848;4.652;2022-10-31T02:09:41;15.20;;;6.60;;
34836;SDS011;21053;50.848;4.652;2022-10-31T02:12:10;13.02;;;7.28;;
34836;SDS011;21053;50.848;4.652;2022-10-31T02:14:38;25.05;;;8.88;;
34836;SDS011;21053;50.848;4.652;2022-10-31T02:17:06;13.98;;;7.00;;
34836;SDS011;21053;50.848;4.652;2022-10-31T02:19:40;16.88;;;7.57;;
34836;SDS011;21053;50.848;4.652;2022-10-31T02:27:48;20.98;;;8.85;;
34836;SDS011;21053;50.848;4.652;2022-10-31T02:30:37;34.97;;;9.85;;
34836;SDS011;21053;50.848;4.652;2022-10-31T02:33:24;33.00;;;9.05;;
34836;SDS011;21053;50.848;4.652;2022-10-31T02:36:11;26.95;;;9.57;;
34836;SDS011;21053;50.848;4.652;2022-10-31T02:44:39;30.85;;;11.10;;
34836;SDS011;21053;50.848;4.652;2022-10-31T02:47:05;51.70;;;10.23;;
34836;SDS011;21053;50.848;4.652;2022-10-31T02:49:33;26.77;;;9.48;;
34836;SDS011;21053;50.848;4.652;2022-10-31T02:52:32;45.10;;;10.40;;
34836;SDS011;21053;50.848;4.652;2022-10-31T02:55:10;37.72;;;10.20;;
34836;SDS011;21053;50.848;4.652;2022-10-31T02:57:35;28.65;;;11.15;;
34836;SDS011;21053;50.848;4.652;2022-10-31T03:00:05;27.52;;;10.77;;
34836;SDS011;21053;50.848;4.652;2022-10-31T03:11:11;20.98;;;11.20;;
34836;SDS011;21053;50.848;4.652;2022-10-31T03:19:19;21.70;;;11.23;;
34836;SDS011;21053;50.848;4.652;2022-10-31T03:24:37;25.63;;;10.98;;
34836;SDS011;21053;50.848;4.652;2022-10-31T03:27:04;29.27;;;11.48;;
34836;SDS011;21053;50.848;4.652;2022-10-31T03:29:34;20.20;;;11.27;;
34836;SDS011;21053;50.848;4.652;2022-10-31T03:32:06;22.35;;;11.18;;
34836;SDS011;21053;50.848;4.652;2022-10-31T03:34:45;22.23;;;11.45;;
34836;SDS011;21053;50.848;4.652;2022-10-31T03:37:14;21.85;;;11.32;;
34836;SDS011;21053;50.848;4.652;2022-10-31T03:39:45;24.17;;;11.05;;
34836;SDS011;21053;50.848;4.652;2022-10-31T03:42:18;24.63;;;11.10;;
34836;SDS011;21053;50.848;4.652;2022-10-31T03:44:53;22.08;;;10.70;;
34836;SDS011;21053;50.848;4.652;2022-10-31T03:47:23;23.40;;;10.20;;
34836;SDS011;21053;50.848;4.652;2022-10-31T03:49:50;17.38;;;10.35;;
34836;SDS011;21053;50.848;4.652;2022-10-31T03:52:27;17.90;;;9.30;;
34836;SDS011;21053;50.848;4.652;2022-10-31T03:58:02;23.85;;;10.40;;
34836;SDS011;21053;50.848;4.652;2022-10-31T04:03:15;18.48;;;9.52;;
34836;SDS011;21053;50.848;4.652;2022-10-31T04:05:49;27.73;;;11.80;;
34836;SDS011;21053;50.848;4.652;2022-10-31T04:08:23;28.98;;;10.80;;
34836;SDS011;21053;50.848;4.652;2022-10-31T04:10:52;20.60;;;11.43;;
34836;SDS011;21053;50.848;4.652;2022-10-31T04:13:25;24.58;;;10.95;;
34836;SDS011;21053;50.848;4.652;2022-10-31T04:15:55;20.08;;;9.80;;
34836;SDS011;21053;50.848;4.652;2022-10-31T04:18:23;20.20;;;11.10;;
34836;SDS011;21053;50.848;4.652;2022-10-31T04:20:58;21.02;;;9.88;;
34836;SDS011;21053;50.848;4.652;2022-10-31T04:23:29;31.05;;;9.60;;
34836;SDS011;21053;50.848;4.652;2022-10-31T04:28:26;21.85;;;10.65;;
34836;SDS011;21053;50.848;4.652;2022-10-31T04:30:55;38.03;;;10.32;;
34836;SDS011;21053;50.848;4.652;2022-10-31T04:33:21;28.50;;;10.63;;
34836;SDS011;21053;50.848;4.652;2022-10-31T04:35:48;49.42;;;10.68;;
34836;SDS011;21053;50.848;4.652;2022-10-31T04:38:16;22.52;;;10.07;;
34836;SDS011;21053;50.848;4.652;2022-10-31T04:40:42;30.83;;;10.05;;
34836;SDS011;21053;50.848;4.652;2022-10-31T04:43:07;28.48;;;10.32;;
34836;SDS011;21053;50.848;4.652;2022-10-31T04:45:35;19.85;;;9.48;;
34836;SDS011;21053;50.848;4.652;2022-10-31T04:48:02;33.83;;;10.40;;
34836;SDS011;21053;50.848;4.652;2022-10-31T04:50:30;35.67;;;9.57;;
34836;SDS011;21053;50.848;4.652;2022-10-31T04:52:56;31.90;;;9.15;;
34836;SDS011;21053;50.848;4.652;2022-10-31T04:55:22;17.35;;;9.18;;
34836;SDS011;21053;50.848;4.652;2022-10-31T04:57:49;24.58;;;10.00;;
34836;SDS011;21053;50.848;4.652;2022-10-31T05:00:16;32.08;;;9.27;;
34836;SDS011;21053;50.848;4.652;2022-10-31T05:02:47;14.20;;;8.43;;
34836;SDS011;21053;50.848;4.652;2022-10-31T05:05:14;24.85;;;9.20;;
34836;SDS011;21053;50.848;4.652;2022-10-31T05:07:43;31.27;;;9.30;;
34836;SDS011;21053;50.848;4.652;2022-10-31T05:10:14;16.92;;;8.52;;
34836;SDS011;21053;50.848;4.652;2022-10-31T05:12:51;13.75;;;8.98;;
34836;SDS011;21053;50.848;4.652;2022-10-31T05:15:17;20.45;;;8.80;;
34836;SDS011;21053;50.848;4.652;2022-10-31T05:17:45;13.57;;;8.35;;
34836;SDS011;21053;50.848;4.652;2022-10-31T05:20:12;12.23;;;8.65;;
34836;SDS011;21053;50.848;4.652;2022-10-31T05:22:42;12.77;;;8.73;;
34836;SDS011;21053;50.848;4.652;2022-10-31T05:25:09;11.43;;;7.60;;
34836;SDS011;21053;50.848;4.652;2022-10-31T05:27:40;16.77;;;8.88;;
34836;SDS011;21053;50.848;4.652;2022-10-31T05:30:07;13.88;;;8.32;;
34836;SDS011;21053;50.848;4.652;2022-10-31T05:32:42;14.82;;;8.70;;
34836;SDS011;21053;50.848;4.652;2022-10-31T05:35:11;18.33;;;8.05;;
34836;SDS011;21053;50.848;4.652;2022-10-31T05:37:40;13.25;;;8.30;;
34836;SDS011;21053;50.848;4.652;2022-10-31T05:40:07;13.23;;;7.85;;
34836;SDS011;21053;50.848;4.652;2022-10-31T05:42:38;15.45;;;8.10;;
34836;SDS011;21053;50.848;4.652;2022-10-31T05:45:05;11.98;;;8.05;;
34836;SDS011;21053;50.848;4.652;2022-10-31T05:47:32;12.88;;;8.45;;
34836;SDS011;21053;50.848;4.652;2022-10-31T05:49:59;13.90;;;8.15;;
34836;SDS011;21053;50.848;4.652;2022-10-31T05:52:26;17.85;;;8.00;;
34836;SDS011;21053;50.848;4.652;2022-10-31T05:54:52;20.85;;;9.13;;
34836;SDS011;21053;50.848;4.652;2022-10-31T05:57:19;13.43;;;8.15;;
34836;SDS011;21053;50.848;4.652;2022-10-31T05:59:45;17.42;;;9.43;;
34836;SDS011;21053;50.848;4.652;2022-10-31T06:02:11;17.30;;;9.25;;
34836;SDS011;21053;50.848;4.652;2022-10-31T06:04:39;17.63;;;9.07;;
34836;SDS011;21053;50.848;4.652;2022-10-31T06:07:06;13.57;;;8.82;;
34836;SDS011;21053;50.848;4.652;2022-10-31T06:09:33;15.07;;;7.93;;
34836;SDS011;21053;50.848;4.652;2022-10-31T06:14:29;19.60;;;8.85;;
34836;SDS011;21053;50.848;4.652;2022-10-31T06:17:01;16.67;;;9.32;;
34836;SDS011;21053;50.848;4.652;2022-10-31T06:19:28;16.92;;;8.98;;
34836;SDS011;21053;50.848;4.652;2022-10-31T06:21:57;16.75;;;8.45;;
34836;SDS011;21053;50.848;4.652;2022-10-31T06:24:23;17.60;;;8.68;;
34836;SDS011;21053;50.848;4.652;2022-10-31T06:26:49;13.10;;;8.35;;
34836;SDS011;21053;50.848;4.652;2022-10-31T06:29:15;13.30;;;8.05;;
34836;SDS011;21053;50.848;4.652;2022-10-31T06:31:42;18.10;;;9.00;;
34836;SDS011;21053;50.848;4.652;2022-10-31T06:34:09;15.50;;;8.75;;
34836;SDS011;21053;50.848;4.652;2022-10-31T06:36:35;11.93;;;7.72;;
34836;SDS011;21053;50.848;4.652;2022-10-31T06:39:02;15.55;;;7.63;;
34836;SDS011;21053;50.848;4.652;2022-10-31T06:41:31;14.90;;;8.07;;
34836;SDS011;21053;50.848;4.652;2022-10-31T06:46:26;15.05;;;7.18;;
34836;SDS011;21053;50.848;4.652;2022-10-31T06:51:21;11.77;;;6.75;;
34836;SDS011;21053;50.848;4.652;2022-10-31T06:53:47;10.93;;;7.03;;
34836;SDS011;21053;50.848;4.652;2022-10-31T06:56:14;12.30;;;7.32;;
34836;SDS011;21053;50.848;4.652;2022-10-31T06:58:40;12.68;;;7.65;;
34836;SDS011;21053;50.848;4.652;2022-10-31T07:03:35;9.82;;;7.13;;
34836;SDS011;21053;50.848;4.652;2022-10-31T07:06:02;9.63;;;6.72;;
34836;SDS011;21053;50.848;4.652;2022-10-31T07:08:33;13.93;;;6.93;;
34836;SDS011;21053;50.848;4.652;2022-10-31T07:13:28;17.90;;;8.27;;
34836;SDS011;21053;50.848;4.652;2022-10-31T07:15:54;13.93;;;7.50;;
34836;SDS011;21053;50.848;4.652;2022-10-31T07:18:26;10.68;;;7.10;;
34836;SDS011;21053;50.848;4.652;2022-10-31T07:20:52;10.80;;;7.47;;
34836;SDS011;21053;50.848;4.652;2022-10-31T07:23:18;11.75;;;7.18;;
34836;SDS011;21053;50.848;4.652;2022-10-31T07:25:46;11.10;;;7.03;;
34836;SDS011;21053;50.848;4.652;2022-10-31T07:28:14;10.18;;;6.85;;
34836;SDS011;21053;50.848;4.652;2022-10-31T07:30:41;14.88;;;7.03;;
34836;SDS011;21053;50.848;4.652;2022-10-31T07:33:08;12.23;;;6.93;;
34836;SDS011;21053;50.848;4.652;2022-10-31T07:35:36;13.85;;;7.63;;
34836;SDS011;21053;50.848;4.652;2022-10-31T07:38:08;18.00;;;7.10;;
34836;SDS011;21053;50.848;4.652;2022-10-31T07:40:35;14.32;;;7.43;;
34836;SDS011;21053;50.848;4.652;2022-10-31T07:45:33;12.73;;;7.38;;
34836;SDS011;21053;50.848;4.652;2022-10-31T07:48:00;10.23;;;6.72;;
34836;SDS011;21053;50.848;4.652;2022-10-31T07:50:30;12.02;;;6.90;;
34836;SDS011;21053;50.848;4.652;2022-10-31T07:55:28;13.15;;;6.93;;
34836;SDS011;21053;50.848;4.652;2022-10-31T08:00:29;18.65;;;8.05;;
34836;SDS011;21053;50.848;4.652;2022-10-31T08:03:00;10.18;;;7.78;;
34836;SDS011;21053;50.848;4.652;2022-10-31T08:05:28;13.45;;;8.45;;
34836;SDS011;21053;50.848;4.652;2022-10-31T08:07:57;12.02;;;7.20;;
34836;SDS011;21053;50.848;4.652;2022-10-31T08:10:26;20.15;;;11.43;;
34836;SDS011;21053;50.848;4.652;2022-10-31T08:12:58;20.70;;;10.05;;
34836;SDS011;21053;50.848;4.652;2022-10-31T08:15:29;12.52;;;7.97;;
34836;SDS011;21053;50.848;4.652;2022-10-31T08:17:58;10.90;;;7.15;;
34836;SDS011;21053;50.848;4.652;2022-10-31T08:20:24;19.02;;;7.80;;
34836;SDS011;21053;50.848;4.652;2022-10-31T08:23:09;12.80;;;7.63;;
34836;SDS011;21053;50.848;4.652;2022-10-31T08:25:36;15.68;;;7.85;;
34836;SDS011;21053;50.848;4.652;2022-10-31T08:28:03;14.63;;;7.60;;
34836;SDS011;21053;50.848;4.652;2022-10-31T08:30:31;12.98;;;7.55;;
34836;SDS011;21053;50.848;4.652;2022-10-31T08:32:58;17.40;;;7.55;;
34836;SDS011;21053;50.848;4.652;2022-10-31T08:35:44;17.48;;;8.35;;
34836;SDS011;21053;50.848;4.652;2022-10-31T08:38:13;17.90;;;8.52;;
34836;SDS011;21053;50.848;4.652;2022-10-31T08:40:39;19.52;;;9.00;;
34836;SDS011;21053;50.848;4.652;2022-10-31T08:43:06;19.48;;;9.02;;
34836;SDS011;21053;50.848;4.652;2022-10-31T08:45:36;17.67;;;8.30;;
34836;SDS011;21053;50.848;4.652;2022-10-31T08:48:05;18.55;;;8.27;;
34836;SDS011;21053;50.848;4.652;2022-10-31T08:50:37;20.92;;;9.45;;
34836;SDS011;21053;50.848;4.652;2022-10-31T08:53:04;19.58;;;9.93;;
34836;SDS011;21053;50.848;4.652;2022-10-31T08:55:35;20.25;;;9.80;;
34836;SDS011;21053;50.848;4.652;2022-10-31T09:00:34;18.45;;;10.40;;
34836;SDS011;21053;50.848;4.652;2022-10-31T09:05:30;30.85;;;11.45;;
34836;SDS011;21053;50.848;4.652;2022-10-31T09:07:57;16.48;;;9.88;;
34836;SDS011;21053;50.848;4.652;2022-10-31T09:10:24;22.23;;;11.05;;
34836;SDS011;21053;50.848;4.652;2022-10-31T09:13:01;20.10;;;10.63;;
34836;SDS011;21053;50.848;4.652;2022-10-31T09:15:35;24.05;;;11.10;;
34836;SDS011;21053;50.848;4.652;2022-10-31T09:18:03;21.83;;;10.27;;
34836;SDS011;21053;50.848;4.652;2022-10-31T09:20:33;29.85;;;10.93;;
34836;SDS011;21053;50.848;4.652;2022-10-31T09:23:04;23.27;;;12.27;;
34836;SDS011;21053;50.848;4.652;2022-10-31T09:25:33;24.48;;;12.10;;
34836;SDS011;21053;50.848;4.652;2022-10-31T09:28:02;29.95;;;11.90;;
34836;SDS011;21053;50.848;4.652;2022-10-31T09:30:33;22.85;;;12.57;;
34836;SDS011;21053;50.848;4.652;2022-10-31T09:33:03;22.60;;;11.52;;
34836;SDS011;21053;50.848;4.652;2022-10-31T09:35:31;26.42;;;12.15;;
34836;SDS011;21053;50.848;4.652;2022-10-31T09:37:58;24.17;;;10.82;;
34836;SDS011;21053;50.848;4.652;2022-10-31T09:40:45;33.28;;;12.25;;
34836;SDS011;21053;50.848;4.652;2022-10-31T09:48:47;28.33;;;12.65;;
34836;SDS011;21053;50.848;4.652;2022-10-31T09:54:12;23.55;;;12.38;;
34836;SDS011;21053;50.848;4.652;2022-10-31T09:56:43;22.45;;;12.32;;
34836;SDS011;21053;50.848;4.652;2022-10-31T09:59:23;31.15;;;13.25;;
34836;SDS011;21053;50.848;4.652;2022-10-31T10:02:02;21.98;;;12.38;;
34836;SDS011;21053;50.848;4.652;2022-10-31T10:04:54;21.63;;;11.50;;
34836;SDS011;21053;50.848;4.652;2022-10-31T10:08:29;22.52;;;11.73;;
34836;SDS011;21053;50.848;4.652;2022-10-31T10:24:49;25.13;;;11.25;;
34836;SDS011;21053;50.848;4.652;2022-10-31T10:27:41;24.73;;;12.02;;
34836;SDS011;21053;50.848;4.652;2022-10-31T10:32:52;24.08;;;11.77;;
34836;SDS011;21053;50.848;4.652;2022-10-31T10:35:33;25.10;;;12.50;;
34836;SDS011;21053;50.848;4.652;2022-10-31T10:40:41;34.55;;;13.32;;
34836;SDS011;21053;50.848;4.652;2022-10-31T10:59:52;25.83;;;10.98;;
34836;SDS011;21053;50.848;4.652;2022-10-31T11:02:21;24.23;;;10.85;;
34836;SDS011;21053;50.848;4.652;2022-10-31T11:04:55;25.73;;;9.98;;
34836;SDS011;21053;50.848;4.652;2022-10-31T11:07:23;18.75;;;9.10;;
34836;SDS011;21053;50.848;4.652;2022-10-31T11:09:49;20.52;;;7.88;;
34836;SDS011;21053;50.848;4.652;2022-10-31T11:12:27;26.70;;;7.93;;
34836;SDS011;21053;50.848;4.652;2022-10-31T11:15:00;16.75;;;7.28;;
34836;SDS011;21053;50.848;4.652;2022-10-31T11:17:38;30.38;;;8.18;;
34836;SDS011;21053;50.848;4.652;2022-10-31T11:22:38;35.17;;;8.43;;
34836;SDS011;21053;50.848;4.652;2022-10-31T11:25:26;22.00;;;9.07;;
34836;SDS011;21053;50.848;4.652;2022-10-31T11:30:35;19.98;;;8.13;;
34836;SDS011;21053;50.848;4.652;2022-10-31T11:33:14;18.08;;;8.25;;
34836;SDS011;21053;50.848;4.652;2022-10-31T11:35:46;27.00;;;8.50;;
34836;SDS011;21053;50.848;4.652;2022-10-31T11:38:23;23.25;;;8.15;;
34836;SDS011;21053;50.848;4.652;2022-10-31T11:41:11;21.88;;;8.55;;
34836;SDS011;21053;50.848;4.652;2022-10-31T11:44:26;19.15;;;7.63;;
34836;SDS011;21053;50.848;4.652;2022-10-31T11:46:39;22.70;;;8.07;;
34836;SDS011;21053;50.848;4.652;2022-10-31T11:51:50;17.90;;;7.20;;
34836;SDS011;21053;50.848;4.652;2022-10-31T11:54:25;17.77;;;7.28;;
34836;SDS011;21053;50.848;4.652;2022-10-31T11:56:58;19.35;;;7.53;;
34836;SDS011;21053;50.848;4.652;2022-10-31T11:59:30;15.73;;;6.88;;
34836;SDS011;21053;50.848;4.652;2022-10-31T12:01:58;16.85;;;6.65;;
34836;SDS011;21053;50.848;4.652;2022-10-31T12:05:17;16.10;;;7.60;;
34836;SDS011;21053;50.848;4.652;2022-10-31T12:07:37;18.00;;;6.45;;
34836;SDS011;21053;50.848;4.652;2022-10-31T12:10:09;30.10;;;7.68;;
34836;SDS011;21053;50.848;4.652;2022-10-31T12:15:29;20.08;;;6.43;;
34836;SDS011;21053;50.848;4.652;2022-10-31T12:18:17;19.85;;;6.57;;
34836;SDS011;21053;50.848;4.652;2022-10-31T12:26:29;19.85;;;6.70;;
34836;SDS011;21053;50.848;4.652;2022-10-31T12:29:32;14.93;;;6.78;;
34836;SDS011;21053;50.848;4.652;2022-10-31T12:35:21;14.60;;;6.07;;
34836;SDS011;21053;50.848;4.652;2022-10-31T12:43:58;16.52;;;5.90;;
34836;SDS011;21053;50.848;4.652;2022-10-31T12:46:37;19.33;;;5.72;;
34836;SDS011;21053;50.848;4.652;2022-10-31T12:55:14;16.42;;;4.60;;
34836;SDS011;21053;50.848;4.652;2022-10-31T12:58:20;15.95;;;4.57;;
34836;SDS011;21053;50.848;4.652;2022-10-31T13:00:51;10.88;;;4.18;;
34836;SDS011;21053;50.848;4.652;2022-10-31T13:06:42;19.20;;;4.18;;
34836;SDS011;21053;50.848;4.652;2022-10-31T13:09:16;15.80;;;4.35;;
34836;SDS011;21053;50.848;4.652;2022-10-31T13:11:48;11.35;;;4.68;;
34836;SDS011;21053;50.848;4.652;2022-10-31T13:16:50;16.42;;;4.07;;
34836;SDS011;21053;50.848;4.652;2022-10-31T13:19:19;13.60;;;4.60;;
34836;SDS011;21053;50.848;4.652;2022-10-31T13:22:32;14.38;;;4.28;;
34836;SDS011;21053;50.848;4.652;2022-10-31T13:24:46;15.18;;;4.80;;
34836;SDS011;21053;50.848;4.652;2022-10-31T13:27:22;24.17;;;4.47;;
34836;SDS011;21053;50.848;4.652;2022-10-31T13:29:56;14.35;;;4.15;;
34836;SDS011;21053;50.848;4.652;2022-10-31T13:32:35;13.05;;;4.30;;
34836;SDS011;21053;50.848;4.652;2022-10-31T13:35:07;16.63;;;4.82;;
34836;SDS011;21053;50.848;4.652;2022-10-31T13:38:20;13.38;;;4.20;;
34836;SDS011;21053;50.848;4.652;2022-10-31T13:40:57;18.02;;;4.70;;
34836;SDS011;21053;50.848;4.652;2022-10-31T13:46:22;18.52;;;5.45;;
34836;SDS011;21053;50.848;4.652;2022-10-31T13:48:49;19.90;;;6.07;;
34836;SDS011;21053;50.848;4.652;2022-10-31T13:51:23;15.40;;;6.00;;
34836;SDS011;21053;50.848;4.652;2022-10-31T13:56:57;15.00;;;5.82;;
34836;SDS011;21053;50.848;4.652;2022-10-31T13:59:24;19.80;;;6.25;;
34836;SDS011;21053;50.848;4.652;2022-10-31T14:02:02;28.35;;;6.78;;
34836;SDS011;21053;50.848;4.652;2022-10-31T14:04:45;18.45;;;6.88;;
34836;SDS011;21053;50.848;4.652;2022-10-31T14:07:15;22.42;;;7.00;;
34836;SDS011;21053;50.848;4.652;2022-10-31T14:12:37;20.08;;;7.85;;
34836;SDS011;21053;50.848;4.652;2022-10-31T14:17:50;21.30;;;8.20;;
34836;SDS011;21053;50.848;4.652;2022-10-31T14:20:21;22.20;;;7.60;;
34836;SDS011;21053;50.848;4.652;2022-10-31T14:22:59;28.15;;;7.10;;
34836;SDS011;21053;50.848;4.652;2022-10-31T14:25:36;17.50;;;7.05;;
34836;SDS011;21053;50.848;4.652;2022-10-31T14:30:58;23.35;;;8.15;;
34836;SDS011;21053;50.848;4.652;2022-10-31T14:33:26;18.88;;;7.50;;
34836;SDS011;21053;50.848;4.652;2022-10-31T14:36:00;21.65;;;7.78;;
34836;SDS011;21053;50.848;4.652;2022-10-31T14:41:45;24.75;;;8.43;;
34836;SDS011;21053;50.848;4.652;2022-10-31T14:44:43;23.17;;;8.10;;
34836;SDS011;21053;50.848;4.652;2022-10-31T14:50:12;25.80;;;9.13;;
34836;SDS011;21053;50.848;4.652;2022-10-31T14:52:48;23.85;;;8.52;;
34836;SDS011;21053;50.848;4.652;2022-10-31T14:55:17;28.40;;;7.85;;
34836;SDS011;21053;50.848;4.652;2022-10-31T14:57:52;22.95;;;8.70;;
34836;SDS011;21053;50.848;4.652;2022-10-31T15:00:23;20.98;;;7.97;;
34836;SDS011;21053;50.848;4.652;2022-10-31T15:02:57;32.17;;;9.32;;
34836;SDS011;21053;50.848;4.652;2022-10-31T15:05:26;21.98;;;9.23;;
34836;SDS011;21053;50.848;4.652;2022-10-31T15:07:53;21.65;;;9.02;;
34836;SDS011;21053;50.848;4.652;2022-10-31T15:10:27;30.73;;;9.38;;
34836;SDS011;21053;50.848;4.652;2022-10-31T15:15:54;25.85;;;9.93;;
34836;SDS011;21053;50.848;4.652;2022-10-31T15:18:21;28.58;;;9.77;;
34836;SDS011;21053;50.848;4.652;2022-10-31T15:20:50;16.83;;;9.25;;
34836;SDS011;21053;50.848;4.652;2022-10-31T15:23:22;27.85;;;9.60;;
34836;SDS011;21053;50.848;4.652;2022-10-31T15:25:57;25.95;;;10.50;;
34836;SDS011;21053;50.848;4.652;2022-10-31T15:28:28;26.52;;;9.45;;
34836;SDS011;21053;50.848;4.652;2022-10-31T15:30:58;38.95;;;10.60;;
34836;SDS011;21053;50.848;4.652;2022-10-31T15:33:28;20.23;;;10.40;;
34836;SDS011;21053;50.848;4.652;2022-10-31T15:35:59;22.92;;;7.97;;
34836;SDS011;21053;50.848;4.652;2022-10-31T15:38:28;17.00;;;8.25;;
34836;SDS011;21053;50.848;4.652;2022-10-31T15:40:56;29.02;;;10.35;;
34836;SDS011;21053;50.848;4.652;2022-10-31T15:43:22;31.77;;;10.50;;
34836;SDS011;21053;50.848;4.652;2022-10-31T15:45:49;34.67;;;10.13;;
34836;SDS011;21053;50.848;4.652;2022-10-31T15:48:17;27.92;;;9.48;;
34836;SDS011;21053;50.848;4.652;2022-10-31T15:50:48;30.77;;;11.25;;
34836;SDS011;21053;50.848;4.652;2022-10-31T15:55:56;25.73;;;10.15;;
34836;SDS011;21053;50.848;4.652;2022-10-31T15:58:29;29.83;;;9.73;;
34836;SDS011;21053;50.848;4.652;2022-10-31T16:00:58;21.95;;;9.70;;
34836;SDS011;21053;50.848;4.652;2022-10-31T16:03:27;21.50;;;9.77;;
34836;SDS011;21053;50.848;4.652;2022-10-31T16:05:55;23.38;;;7.78;;
34836;SDS011;21053;50.848;4.652;2022-10-31T16:08:24;22.90;;;7.05;;
34836;SDS011;21053;50.848;4.652;2022-10-31T16:13:40;17.10;;;7.22;;
34836;SDS011;21053;50.848;4.652;2022-10-31T16:16:20;21.52;;;8.07;;
34836;SDS011;21053;50.848;4.652;2022-10-31T16:18:51;24.17;;;9.13;;
34836;SDS011;21053;50.848;4.652;2022-10-31T16:21:32;23.63;;;8.50;;
34836;SDS011;21053;50.848;4.652;2022-10-31T16:24:01;28.90;;;8.20;;
34836;SDS011;21053;50.848;4.652;2022-10-31T16:26:40;25.25;;;8.07;;
34836;SDS011;21053;50.848;4.652;2022-10-31T16:29:33;16.50;;;7.60;;
34836;SDS011;21053;50.848;4.652;2022-10-31T16:31:58;17.08;;;6.70;;
34836;SDS011;21053;50.848;4.652;2022-10-31T16:34:25;21.20;;;7.78;;
34836;SDS011;21053;50.848;4.652;2022-10-31T16:36:51;20.42;;;6.68;;
34836;SDS011;21053;50.848;4.652;2022-10-31T16:39:19;22.33;;;6.82;;
34836;SDS011;21053;50.848;4.652;2022-10-31T16:41:47;23.02;;;6.75;;
34836;SDS011;21053;50.848;4.652;2022-10-31T16:44:22;18.70;;;7.32;;
34836;SDS011;21053;50.848;4.652;2022-10-31T16:49:38;25.08;;;8.85;;
34836;SDS011;21053;50.848;4.652;2022-10-31T16:54:33;12.38;;;6.45;;
34836;SDS011;21053;50.848;4.652;2022-10-31T16:59:28;22.63;;;5.82;;
34836;SDS011;21053;50.848;4.652;2022-10-31T17:01:56;19.65;;;6.25;;
34836;SDS011;21053;50.848;4.652;2022-10-31T17:04:23;18.90;;;6.72;;
34836;SDS011;21053;50.848;4.652;2022-10-31T17:06:49;13.43;;;5.97;;
34836;SDS011;21053;50.848;4.652;2022-10-31T17:09:16;21.25;;;6.10;;
34836;SDS011;21053;50.848;4.652;2022-10-31T17:11:45;13.98;;;6.22;;
34836;SDS011;21053;50.848;4.652;2022-10-31T17:14:14;13.57;;;5.60;;
34836;SDS011;21053;50.848;4.652;2022-10-31T17:16:42;12.73;;;6.30;;
34836;SDS011;21053;50.848;4.652;2022-10-31T17:19:11;16.75;;;6.68;;
34836;SDS011;21053;50.848;4.652;2022-10-31T17:21:38;19.35;;;6.72;;
34836;SDS011;21053;50.848;4.652;2022-10-31T17:24:04;18.63;;;6.60;;
34836;SDS011;21053;50.848;4.652;2022-10-31T17:26:30;25.50;;;7.35;;
34836;SDS011;21053;50.848;4.652;2022-10-31T17:28:56;15.80;;;6.97;;
34836;SDS011;21053;50.848;4.652;2022-10-31T17:31:27;17.05;;;7.38;;
34836;SDS011;21053;50.848;4.652;2022-10-31T17:33:55;22.60;;;8.57;;
34836;SDS011;21053;50.848;4.652;2022-10-31T17:38:52;18.65;;;6.72;;
34836;SDS011;21053;50.848;4.652;2022-10-31T17:41:19;16.95;;;6.05;;
34836;SDS011;21053;50.848;4.652;2022-10-31T17:43:46;18.55;;;6.07;;
34836;SDS011;21053;50.848;4.652;2022-10-31T17:46:12;13.40;;;6.20;;
34836;SDS011;21053;50.848;4.652;2022-10-31T17:48:39;17.02;;;6.53;;
34836;SDS011;21053;50.848;4.652;2022-10-31T17:51:05;17.83;;;6.25;;
34836;SDS011;21053;50.848;4.652;2022-10-31T17:53:32;19.98;;;5.75;;
34836;SDS011;21053;50.848;4.652;2022-10-31T17:55:59;16.20;;;6.10;;
34836;SDS011;21053;50.848;4.652;2022-10-31T17:58:29;16.08;;;5.40;;
34836;SDS011;21053;50.848;4.652;2022-10-31T18:00:55;12.48;;;4.80;;
34836;SDS011;21053;50.848;4.652;2022-10-31T18:03:22;21.77;;;5.47;;